createdAt,value
2022-11-29T00:00:03.409Z,8.04
2022-11-29T00:15:02.167Z,8.05
2022-11-29T00:30:01.873Z,8.05
2022-11-29T00:45:02.515Z,8.06
2022-11-29T01:00:02.229Z,8.08
2022-11-29T01:15:01.831Z,8.09
2022-11-29T01:30:02.527Z,8.1
2022-11-29T01:45:02.158Z,8.09
2022-11-29T02:00:01.809Z,8.1
2022-11-29T02:15:02.497Z,8.11
2022-11-29T02:30:02.239Z,8.12
2022-11-29T02:45:01.876Z,8.12
2022-11-29T03:00:02.584Z,8.14
2022-11-29T03:15:02.177Z,8.15
2022-11-29T03:30:01.888Z,8.18
2022-11-29T03:45:02.574Z,8.2
2022-11-29T04:00:02.202Z,8.21
2022-11-29T04:15:01.825Z,8.25
2022-11-29T04:30:02.500Z,8.27
2022-11-29T04:45:02.124Z,8.31
2022-11-29T05:00:01.762Z,8.28
2022-11-29T05:15:02.393Z,8.35
2022-11-29T05:30:01.609Z,8.38
2022-11-29T05:45:02.286Z,8.39
2022-11-29T06:00:01.918Z,8.42
2022-11-29T06:15:02.557Z,8.43
2022-11-29T06:30:02.224Z,8.47
2022-11-29T06:45:01.888Z,8.47
2022-11-29T07:00:02.552Z,8.52
2022-11-29T07:15:02.263Z,8.56
2022-11-29T07:30:01.952Z,8.59
2022-11-29T07:45:01.609Z,8.61
2022-11-29T08:00:02.229Z,8.65
2022-11-29T08:15:01.885Z,8.68
2022-11-29T08:30:02.534Z,8.74
2022-11-29T08:45:02.202Z,8.79
2022-11-29T09:00:01.918Z,8.84
2022-11-29T09:15:01.622Z,8.88
2022-11-29T09:30:02.283Z,8.96
2022-11-29T09:45:01.962Z,9.11
2022-11-29T10:00:01.624Z,9.15
2022-11-29T10:15:02.227Z,9.26
2022-11-29T10:30:01.911Z,9.43
2022-11-29T10:45:02.699Z,9.44
2022-11-29T11:00:02.408Z,9.49
2022-11-29T11:15:02.018Z,9.57
2022-11-29T11:30:01.667Z,9.59
2022-11-29T11:45:02.657Z,9.67
2022-11-29T12:00:06.971Z,9.75
2022-11-29T12:15:02.051Z,9.8
2022-11-29T12:30:01.766Z,9.8
2022-11-29T12:45:02.430Z,9.81
2022-11-29T13:00:02.089Z,9.82
2022-11-29T13:15:01.972Z,9.83
2022-11-29T13:30:01.836Z,9.8
2022-11-29T13:45:02.479Z,9.87
2022-11-29T14:00:02.077Z,9.89
2022-11-29T14:15:01.718Z,9.81
2022-11-29T14:30:02.349Z,9.8
2022-11-29T14:45:02.020Z,9.68
2022-11-29T15:00:01.621Z,9.68
2022-11-29T15:15:02.272Z,9.64
2022-11-29T15:30:02.010Z,9.56
2022-11-29T15:45:01.659Z,9.53
2022-11-29T16:00:02.288Z,9.49
2022-11-29T16:15:01.923Z,9.51
2022-11-29T16:30:01.627Z,9.45
2022-11-29T16:45:02.325Z,9.48
2022-11-29T17:00:01.933Z,9.42
2022-11-29T17:15:01.585Z,9.42
2022-11-29T17:30:02.269Z,9.46
2022-11-29T17:45:01.924Z,9.41
2022-11-29T18:00:02.580Z,9.42
2022-11-29T18:15:02.232Z,9.47
2022-11-29T18:30:01.926Z,9.46
2022-11-29T18:45:02.560Z,9.48
2022-11-29T19:00:02.174Z,9.47
2022-11-29T19:15:01.781Z,9.49
2022-11-29T19:30:02.475Z,9.66
2022-11-29T19:45:16.567Z,9.48
2022-11-29T20:00:01.961Z,9.37
2022-11-29T20:15:01.640Z,9.31
2022-11-29T20:30:02.269Z,9.16
2022-11-29T20:45:01.960Z,9.11
2022-11-29T21:00:01.635Z,9.04
2022-11-29T21:15:02.329Z,9.15
2022-11-29T21:30:01.980Z,9.01
2022-11-29T21:45:01.649Z,8.79
2022-11-29T22:00:02.299Z,8.7
2022-11-29T22:15:01.997Z,8.69
2022-11-29T22:30:01.728Z,8.63
2022-11-29T22:45:02.389Z,8.51
2022-11-29T23:00:02.171Z,8.49
2022-11-29T23:15:01.845Z,8.51
2022-11-29T23:30:02.584Z,8.32
2022-11-29T23:45:02.252Z,8.25
